createdAt,value
2023-02-22T00:01:36.218Z,5.97
2023-02-22T00:04:04.531Z,6.20
2023-02-22T00:06:31.599Z,5.93
2023-02-22T00:08:59.520Z,5.55
2023-02-22T00:11:27.330Z,5.40
2023-02-22T00:13:57.247Z,5.88
2023-02-22T00:16:25.421Z,5.90
2023-02-22T00:18:53.318Z,5.93
2023-02-22T00:21:20.455Z,5.82
2023-02-22T00:23:48.318Z,5.93
2023-02-22T00:26:18.285Z,7.30
2023-02-22T00:28:49.630Z,6.60
2023-02-22T00:31:17.359Z,7.40
2023-02-22T00:33:44.763Z,6.68
2023-02-22T00:36:12.950Z,6.55
2023-02-22T00:38:40.681Z,6.68
2023-02-22T00:41:07.856Z,6.65
2023-02-22T00:43:35.409Z,6.50
2023-02-22T00:46:02.713Z,6.40
2023-02-22T00:48:29.880Z,7.38
2023-02-22T00:50:57.139Z,7.15
2023-02-22T00:53:25.292Z,7.43
2023-02-22T00:55:52.999Z,7.07
2023-02-22T00:58:20.128Z,7.07
2023-02-22T01:00:47.596Z,7.40
2023-02-22T01:03:16.058Z,6.65
2023-02-22T01:05:43.687Z,6.97
2023-02-22T01:08:11.624Z,6.90
2023-02-22T01:10:39.405Z,6.65
2023-02-22T01:13:09.183Z,5.95
2023-02-22T01:15:37.479Z,6.60
2023-02-22T01:18:05.298Z,6.75
2023-02-22T01:20:33.084Z,6.78
2023-02-22T01:23:00.942Z,6.22
2023-02-22T01:25:29.172Z,6.18
2023-02-22T01:27:57.396Z,6.20
2023-02-22T01:30:26.282Z,6.35
2023-02-22T01:32:53.596Z,5.82
2023-02-22T01:35:25.144Z,6.28
2023-02-22T01:37:52.324Z,6.22
2023-02-22T01:40:21.719Z,6.32
2023-02-22T01:42:51.798Z,5.88
2023-02-22T01:45:32.457Z,5.32
2023-02-22T01:48:02.432Z,5.15
2023-02-22T01:50:31.108Z,5.30
2023-02-22T01:52:58.319Z,5.20
2023-02-22T01:55:26.606Z,5.50
2023-02-22T01:57:53.705Z,5.75
2023-02-22T02:00:22.010Z,5.40
2023-02-22T02:02:51.316Z,5.50
2023-02-22T02:05:18.616Z,4.93
2023-02-22T02:07:46.572Z,4.85
2023-02-22T02:10:15.464Z,5.25
2023-02-22T02:12:48.149Z,4.80
2023-02-22T02:17:43.540Z,5.28
2023-02-22T02:20:14.049Z,4.93
2023-02-22T02:22:50.933Z,4.97
2023-02-22T02:25:33.059Z,5.00
2023-02-22T02:28:02.933Z,4.63
2023-02-22T02:30:48.479Z,4.70
2023-02-22T02:33:24.731Z,4.70
2023-02-22T02:35:57.720Z,4.85
2023-02-22T02:38:24.824Z,4.47
2023-02-22T02:40:54.961Z,4.55
2023-02-22T02:43:26.428Z,5.20
2023-02-22T02:45:56.394Z,4.38
2023-02-22T02:48:26.209Z,4.07
2023-02-22T02:50:54.359Z,4.93
2023-02-22T02:53:22.938Z,5.57
2023-02-22T02:55:50.760Z,4.72
2023-02-22T02:58:19.990Z,4.72
2023-02-22T03:00:47.395Z,5.10
2023-02-22T03:03:33.447Z,4.38
2023-02-22T03:06:01.772Z,4.45
2023-02-22T03:08:31.905Z,4.18
2023-02-22T03:11:19.088Z,5.03
2023-02-22T03:13:49.178Z,4.15
2023-02-22T03:16:19.187Z,5.00
2023-02-22T03:18:55.571Z,4.55
2023-02-22T03:21:33.653Z,4.90
2023-02-22T03:24:10.263Z,4.78
2023-02-22T03:26:42.935Z,4.75
2023-02-22T03:31:40.541Z,4.47
2023-02-22T03:34:19.956Z,4.57
2023-02-22T03:36:49.367Z,4.13
2023-02-22T03:39:17.655Z,4.80
2023-02-22T03:41:54.172Z,4.22
2023-02-22T03:44:25.033Z,4.68
2023-02-22T03:46:53.505Z,4.70
2023-02-22T03:49:38.015Z,4.50
2023-02-22T03:52:05.594Z,4.80
2023-02-22T03:54:33.253Z,4.50
2023-02-22T03:57:04.502Z,4.75
2023-02-22T03:59:31.754Z,4.63
2023-02-22T04:01:58.954Z,4.70
2023-02-22T04:04:26.613Z,4.50
2023-02-22T04:06:53.966Z,5.20
2023-02-22T04:09:21.442Z,8.07
2023-02-22T04:11:48.807Z,9.90
2023-02-22T04:14:16.288Z,10.20
2023-02-22T04:16:43.417Z,6.95
2023-02-22T04:19:10.611Z,4.97
2023-02-22T04:21:37.742Z,4.47
2023-02-22T04:24:05.030Z,4.22
2023-02-22T04:26:32.220Z,4.30
2023-02-22T04:28:59.349Z,4.43
2023-02-22T04:31:26.494Z,3.90
2023-02-22T04:33:53.813Z,4.35
2023-02-22T04:36:21.743Z,4.70
2023-02-22T04:38:49.392Z,4.60
2023-02-22T04:41:18.904Z,4.53
2023-02-22T04:43:46.320Z,4.22
2023-02-22T04:46:13.666Z,4.95
2023-02-22T04:48:40.783Z,4.50
2023-02-22T04:51:08.557Z,4.60
2023-02-22T04:53:36.054Z,4.78
2023-02-22T04:56:03.303Z,4.03
2023-02-22T04:58:31.761Z,4.43
2023-02-22T05:00:58.902Z,3.78
2023-02-22T05:03:25.987Z,4.03
2023-02-22T05:05:53.567Z,5.07
2023-02-22T05:08:20.778Z,4.95
2023-02-22T05:10:47.850Z,4.93
2023-02-22T05:13:14.947Z,4.65
2023-02-22T05:15:42.089Z,4.50
2023-02-22T05:18:09.256Z,4.80
2023-02-22T05:20:36.646Z,5.13
2023-02-22T05:23:03.934Z,4.78
2023-02-22T05:25:31.057Z,4.70
2023-02-22T05:28:03.237Z,4.70
2023-02-22T05:30:31.869Z,4.50
2023-02-22T05:32:59.463Z,5.10
2023-02-22T05:35:27.077Z,5.32
2023-02-22T05:37:54.416Z,4.50
2023-02-22T05:40:26.403Z,5.00
2023-02-22T05:42:54.488Z,4.85
2023-02-22T05:45:22.871Z,5.03
2023-02-22T05:47:50.162Z,5.60
2023-02-22T05:50:18.240Z,4.93
2023-02-22T05:52:45.394Z,4.95
2023-02-22T05:55:14.670Z,4.80
2023-02-22T05:57:41.825Z,5.45
2023-02-22T06:00:09.675Z,5.10
2023-02-22T06:02:36.895Z,4.95
2023-02-22T06:05:04.012Z,4.85
2023-02-22T06:07:31.099Z,4.68
2023-02-22T06:09:58.169Z,4.78
2023-02-22T06:12:25.435Z,4.95
2023-02-22T06:14:52.514Z,4.72
2023-02-22T06:17:20.640Z,6.45
2023-02-22T06:19:47.839Z,7.45
2023-02-22T06:22:19.147Z,7.38
2023-02-22T06:24:46.667Z,7.85
2023-02-22T06:27:13.825Z,8.90
2023-02-22T06:29:44.984Z,9.15
2023-02-22T06:32:12.215Z,8.38
2023-02-22T06:34:40.925Z,7.70
2023-02-22T06:37:08.492Z,7.93
2023-02-22T06:39:35.564Z,7.05
2023-02-22T06:42:02.734Z,7.78
2023-02-22T06:44:29.828Z,9.35
2023-02-22T06:46:56.973Z,10.38
2023-02-22T06:49:24.046Z,7.63
2023-02-22T06:51:51.150Z,7.00
2023-02-22T06:54:18.285Z,7.70
2023-02-22T06:56:45.375Z,6.22
2023-02-22T06:59:12.560Z,7.10
2023-02-22T07:01:43.202Z,6.88
2023-02-22T07:04:10.351Z,6.55
2023-02-22T07:06:37.626Z,6.88
2023-02-22T07:09:04.696Z,6.18
2023-02-22T07:11:31.911Z,6.20
2023-02-22T07:13:59.015Z,6.38
2023-02-22T07:16:26.156Z,6.57
2023-02-22T07:18:53.222Z,6.65
2023-02-22T07:21:20.381Z,7.22
2023-02-22T07:23:54.454Z,7.22
2023-02-22T07:26:21.794Z,8.13
2023-02-22T07:28:48.981Z,7.95
2023-02-22T07:31:16.752Z,9.65
2023-02-22T07:33:44.120Z,7.30
2023-02-22T07:36:13.612Z,8.45
2023-02-22T07:38:40.832Z,7.32
2023-02-22T07:41:08.008Z,6.72
2023-02-22T07:43:35.216Z,6.20
2023-02-22T07:46:02.897Z,5.97
2023-02-22T07:48:31.046Z,6.18
2023-02-22T07:50:58.549Z,9.32
2023-02-22T07:53:28.827Z,11.40
2023-02-22T07:55:56.375Z,7.05
2023-02-22T07:58:24.335Z,6.57
2023-02-22T08:00:51.542Z,6.05
2023-02-22T08:03:19.872Z,5.50
2023-02-22T08:05:48.235Z,5.60
2023-02-22T08:08:18.741Z,5.65
2023-02-22T08:10:46.810Z,5.20
2023-02-22T08:13:13.936Z,4.82
2023-02-22T08:15:42.730Z,5.07
2023-02-22T08:18:10.907Z,4.60
2023-02-22T08:20:39.087Z,4.93
2023-02-22T08:23:06.618Z,4.93
2023-02-22T08:25:33.817Z,5.13
2023-02-22T08:28:02.148Z,4.35
2023-02-22T08:30:30.852Z,4.75
2023-02-22T08:32:58.568Z,5.45
2023-02-22T08:35:27.439Z,5.35
2023-02-22T08:37:56.465Z,4.40
2023-02-22T08:40:24.728Z,3.50
2023-02-22T08:42:52.296Z,3.95
2023-02-22T08:45:19.800Z,3.88
2023-02-22T08:47:47.344Z,3.38
2023-02-22T08:50:41.912Z,3.97
2023-02-22T08:53:10.220Z,3.28
2023-02-22T08:55:38.480Z,3.10
2023-02-22T08:58:09.257Z,3.00
2023-02-22T09:00:38.689Z,3.08
2023-02-22T09:03:07.542Z,3.25
2023-02-22T09:05:34.688Z,2.85
2023-02-22T09:08:01.829Z,2.90
2023-02-22T09:10:31.102Z,2.50
2023-02-22T09:13:00.569Z,2.90
2023-02-22T09:15:28.104Z,2.63
2023-02-22T09:17:55.738Z,2.65
2023-02-22T09:20:23.530Z,2.78
2023-02-22T09:22:50.788Z,2.58
2023-02-22T09:25:20.505Z,2.60
2023-02-22T09:27:48.684Z,2.85
2023-02-22T09:30:24.151Z,2.83
2023-02-22T09:32:55.393Z,2.80
2023-02-22T09:35:29.331Z,2.70
2023-02-22T09:37:56.970Z,2.30
2023-02-22T09:40:25.378Z,2.28
2023-02-22T09:43:13.976Z,2.70
2023-02-22T09:45:52.690Z,3.05
2023-02-22T09:48:22.515Z,3.15
2023-02-22T09:50:50.439Z,2.50
2023-02-22T09:53:21.782Z,3.00
2023-02-22T09:55:53.319Z,3.03
2023-02-22T09:58:20.397Z,2.50
2023-02-22T10:00:48.104Z,2.85
2023-02-22T10:03:25.074Z,3.08
2023-02-22T10:05:59.742Z,3.40
2023-02-22T10:08:31.185Z,3.55
2023-02-22T10:11:05.024Z,3.38
2023-02-22T10:13:42.138Z,3.30
2023-02-22T10:16:16.195Z,3.90
2023-02-22T10:18:46.352Z,3.92
2023-02-22T10:21:23.411Z,4.05
2023-02-22T10:24:04.485Z,3.70
2023-02-22T10:26:41.540Z,3.88
2023-02-22T10:29:41.483Z,3.60
2023-02-22T10:32:15.150Z,3.80
2023-02-22T10:34:44.648Z,3.92
2023-02-22T10:37:19.722Z,3.78
2023-02-22T10:39:49.192Z,3.85
2023-02-22T10:42:16.446Z,3.85
2023-02-22T10:44:43.710Z,4.05
2023-02-22T10:47:12.144Z,3.40
2023-02-22T10:49:42.650Z,3.35
2023-02-22T10:52:35.956Z,3.88
2023-02-22T10:55:17.466Z,3.50
2023-02-22T10:57:48.483Z,3.53
2023-02-22T11:00:15.648Z,3.50
2023-02-22T11:02:52.308Z,3.22
2023-02-22T11:05:39.382Z,3.35
2023-02-22T11:08:21.879Z,3.35
2023-02-22T11:10:49.701Z,3.63
2023-02-22T11:13:28.623Z,3.42
2023-02-22T11:16:03.281Z,3.50
2023-02-22T11:18:32.637Z,3.60
2023-02-22T11:21:00.684Z,3.88
2023-02-22T11:23:27.979Z,3.58
2023-02-22T11:26:15.228Z,3.80
2023-02-22T11:28:49.200Z,3.50
2023-02-22T11:31:18.501Z,6.15
2023-02-22T11:33:57.984Z,4.35
2023-02-22T11:36:33.002Z,3.55
2023-02-22T11:39:01.063Z,3.53
2023-02-22T11:41:29.738Z,3.80
2023-02-22T11:44:13.115Z,3.55
2023-02-22T11:46:41.079Z,3.08
2023-02-22T11:49:12.555Z,3.63
2023-02-22T11:51:54.785Z,3.50
2023-02-22T11:54:44.513Z,3.22
2023-02-22T11:57:26.409Z,3.08
2023-02-22T11:59:59.677Z,3.60
2023-02-22T12:02:26.806Z,3.63
2023-02-22T12:05:08.678Z,3.00
2023-02-22T12:07:38.581Z,3.15
2023-02-22T12:10:05.670Z,3.72
2023-02-22T12:12:38.483Z,3.35
2023-02-22T12:15:08.648Z,3.42
2023-02-22T12:17:59.307Z,2.95
2023-02-22T12:20:41.013Z,3.88
2023-02-22T12:23:16.759Z,4.30
2023-02-22T12:25:58.368Z,3.75
2023-02-22T12:28:28.667Z,2.85
2023-02-22T12:31:07.957Z,2.90
2023-02-22T12:33:42.558Z,3.38
2023-02-22T12:36:11.871Z,3.15
2023-02-22T12:38:44.265Z,3.20
2023-02-22T12:41:14.192Z,2.88
2023-02-22T12:43:51.764Z,3.08
2023-02-22T12:46:22.124Z,4.05
2023-02-22T12:48:53.989Z,3.50
2023-02-22T12:51:24.462Z,3.80
2023-02-22T12:54:14.824Z,3.78
2023-02-22T12:56:44.423Z,3.28
2023-02-22T12:59:24.471Z,4.03
2023-02-22T13:02:05.184Z,4.03
2023-02-22T13:04:34.723Z,4.10
2023-02-22T13:07:19.251Z,4.82
2023-02-22T13:10:17.487Z,4.47
2023-02-22T13:12:58.150Z,4.70
2023-02-22T13:15:25.310Z,5.30
2023-02-22T13:18:01.974Z,6.18
2023-02-22T13:20:29.228Z,5.50
2023-02-22T13:23:03.974Z,5.30
2023-02-22T13:25:31.051Z,5.55
2023-02-22T13:28:05.303Z,6.00
2023-02-22T13:30:39.592Z,5.15
2023-02-22T13:33:06.787Z,5.60
2023-02-22T13:35:36.676Z,5.85
2023-02-22T13:38:06.627Z,5.15
2023-02-22T13:40:51.983Z,5.53
2023-02-22T13:43:37.139Z,5.30
2023-02-22T13:46:22.042Z,5.10
2023-02-22T13:49:07.716Z,5.38
2023-02-22T13:51:41.591Z,5.05
2023-02-22T13:54:13.501Z,4.50
2023-02-22T13:56:44.455Z,4.70
2023-02-22T13:59:23.966Z,4.90
2023-02-22T14:01:53.442Z,4.65
2023-02-22T14:04:29.571Z,5.13
2023-02-22T14:06:59.591Z,5.35
2023-02-22T14:09:45.554Z,5.32
2023-02-22T14:12:30.876Z,5.13
2023-02-22T14:15:28.815Z,5.22
2023-02-22T14:18:07.376Z,5.50
2023-02-22T14:20:36.526Z,5.30
2023-02-22T14:23:22.425Z,5.95
2023-02-22T14:25:51.394Z,5.20
2023-02-22T14:28:37.967Z,5.55
2023-02-22T14:31:25.748Z,5.78
2023-02-22T14:34:00.427Z,6.20
2023-02-22T14:36:29.920Z,6.05
2023-02-22T14:39:00.323Z,6.75
2023-02-22T14:41:30.762Z,5.85
2023-02-22T14:43:59.288Z,6.32
2023-02-22T14:46:28.570Z,7.25
2023-02-22T14:49:01.486Z,6.00
2023-02-22T14:51:31.172Z,5.88
2023-02-22T14:54:20.484Z,7.32
2023-02-22T14:57:11.942Z,6.40
2023-02-22T14:59:46.879Z,6.80
2023-02-22T15:02:14.990Z,7.10
2023-02-22T15:04:44.919Z,6.28
2023-02-22T15:07:32.342Z,6.82
2023-02-22T15:10:09.756Z,5.97
2023-02-22T15:12:36.839Z,6.53
2023-02-22T15:15:17.228Z,24.40
2023-02-22T15:17:46.216Z,6.70
2023-02-22T15:20:16.576Z,6.40
2023-02-22T15:22:43.877Z,6.53
2023-02-22T15:25:12.241Z,5.70
2023-02-22T15:27:41.870Z,7.97
2023-02-22T15:30:17.248Z,8.55
2023-02-22T15:33:01.330Z,7.38
2023-02-22T15:35:31.354Z,8.80
2023-02-22T15:38:00.232Z,9.40
2023-02-22T15:40:33.068Z,8.80
2023-02-22T15:43:02.279Z,7.68
2023-02-22T15:45:30.273Z,7.55
2023-02-22T15:47:58.683Z,8.15
2023-02-22T15:50:26.032Z,7.90
2023-02-22T15:53:08.692Z,7.95
2023-02-22T15:55:42.976Z,8.05
2023-02-22T15:58:22.265Z,8.65
2023-02-22T16:00:51.877Z,8.18
2023-02-22T16:03:27.645Z,8.27
2023-02-22T16:05:56.739Z,8.07
2023-02-22T16:08:54.379Z,7.63
2023-02-22T16:11:30.072Z,8.27
2023-02-22T16:14:07.792Z,8.55
2023-02-22T16:16:36.866Z,8.52
2023-02-22T16:19:22.787Z,10.00
2023-02-22T16:22:03.254Z,8.77
2023-02-22T16:24:35.450Z,8.98
2023-02-22T16:27:07.573Z,8.20
2023-02-22T16:29:34.759Z,9.15
2023-02-22T16:32:02.060Z,9.40
2023-02-22T16:34:29.198Z,9.48
2023-02-22T16:36:56.739Z,9.50
2023-02-22T16:39:27.928Z,9.02
2023-02-22T16:41:59.172Z,9.10
2023-02-22T16:44:26.925Z,8.07
2023-02-22T16:46:55.242Z,8.90
2023-02-22T16:49:23.492Z,9.43
2023-02-22T16:51:54.640Z,8.82
2023-02-22T16:54:25.291Z,8.55
2023-02-22T16:56:52.648Z,8.43
2023-02-22T16:59:19.869Z,9.45
2023-02-22T17:01:47.074Z,8.80
2023-02-22T17:04:18.266Z,10.38
2023-02-22T17:06:45.375Z,9.82
2023-02-22T17:09:13.044Z,10.48
2023-02-22T17:11:40.339Z,9.60
2023-02-22T17:14:07.436Z,9.90
2023-02-22T17:16:34.707Z,12.70
2023-02-22T17:19:04.924Z,12.50
2023-02-22T17:21:32.200Z,10.35
2023-02-22T17:23:59.329Z,10.90
2023-02-22T17:26:28.184Z,10.07
2023-02-22T17:28:55.289Z,9.98
2023-02-22T17:31:24.573Z,9.30
2023-02-22T17:33:51.834Z,16.75
2023-02-22T17:36:20.901Z,60.35
2023-02-22T17:38:49.979Z,36.33
2023-02-22T17:41:17.285Z,33.45
2023-02-22T17:43:44.345Z,16.33
2023-02-22T17:46:11.545Z,12.00
2023-02-22T17:48:39.650Z,8.75
2023-02-22T17:51:07.850Z,9.70
2023-02-22T17:53:34.972Z,9.65
2023-02-22T17:56:09.216Z,11.30
2023-02-22T17:58:36.865Z,27.92
2023-02-22T18:01:04.850Z,47.78
2023-02-22T18:03:32.380Z,19.45
2023-02-22T18:06:01.222Z,14.88
2023-02-22T18:08:29.058Z,13.45
2023-02-22T18:10:56.712Z,12.45
2023-02-22T18:13:25.109Z,11.57
2023-02-22T18:15:52.436Z,11.52
2023-02-22T18:18:19.813Z,10.73
2023-02-22T18:20:51.382Z,10.73
2023-02-22T18:23:19.887Z,10.82
2023-02-22T18:26:07.802Z,10.63
2023-02-22T18:28:37.459Z,10.85
2023-02-22T18:31:14.478Z,11.30
2023-02-22T18:33:45.456Z,11.95
2023-02-22T18:36:12.847Z,11.07
2023-02-22T18:38:43.356Z,12.38
2023-02-22T18:41:15.013Z,11.93
2023-02-22T18:43:42.762Z,13.95
2023-02-22T18:46:20.455Z,16.45
2023-02-22T18:48:48.419Z,14.68
2023-02-22T18:51:17.135Z,14.70
2023-02-22T18:53:47.152Z,11.63
2023-02-22T18:56:17.173Z,13.10
2023-02-22T18:58:44.528Z,15.30
2023-02-22T19:01:15.851Z,13.00
2023-02-22T19:03:43.059Z,13.63
2023-02-22T19:06:10.214Z,13.52
2023-02-22T19:08:39.592Z,13.63
2023-02-22T19:11:08.682Z,14.38
2023-02-22T19:13:36.282Z,14.85
2023-02-22T19:16:04.039Z,14.52
2023-02-22T19:18:31.663Z,13.93
2023-02-22T19:20:59.262Z,14.60
2023-02-22T19:23:26.495Z,12.77
2023-02-22T19:25:53.629Z,13.93
2023-02-22T19:28:22.144Z,14.02
2023-02-22T19:30:49.251Z,13.77
2023-02-22T19:33:16.410Z,14.07
2023-02-22T19:35:48.048Z,18.38
2023-02-22T19:38:15.510Z,14.85
2023-02-22T19:40:42.728Z,15.77
2023-02-22T19:43:09.840Z,14.88
2023-02-22T19:45:40.033Z,14.20
2023-02-22T19:48:07.159Z,13.18
2023-02-22T19:50:34.294Z,12.85
2023-02-22T19:53:01.646Z,13.88
2023-02-22T19:55:32.319Z,13.60
2023-02-22T19:57:59.907Z,15.93
2023-02-22T20:00:27.915Z,16.42
2023-02-22T20:03:05.743Z,18.13
2023-02-22T20:05:33.770Z,22.40
2023-02-22T20:08:00.975Z,18.83
2023-02-22T20:10:28.389Z,16.88
2023-02-22T20:12:55.523Z,15.95
2023-02-22T20:15:23.958Z,16.17
2023-02-22T20:17:51.820Z,17.10
2023-02-22T20:20:19.291Z,17.95
2023-02-22T20:22:46.524Z,26.33
2023-02-22T20:25:13.694Z,20.65
2023-02-22T20:27:41.144Z,21.83
2023-02-22T20:30:09.949Z,18.73
2023-02-22T20:32:41.301Z,18.00
2023-02-22T20:35:08.821Z,18.45
2023-02-22T20:37:38.848Z,19.23
2023-02-22T20:40:06.523Z,19.70
2023-02-22T20:42:33.607Z,18.88
2023-02-22T20:45:04.583Z,20.17
2023-02-22T20:47:31.697Z,20.33
2023-02-22T20:49:58.846Z,20.45
2023-02-22T20:52:25.952Z,20.15
2023-02-22T20:54:53.074Z,20.63
2023-02-22T20:57:20.190Z,19.92
2023-02-22T20:59:47.604Z,21.08
2023-02-22T21:02:14.718Z,19.33
2023-02-22T21:04:41.870Z,21.58
2023-02-22T21:07:09.105Z,21.27
2023-02-22T21:09:37.223Z,21.73
2023-02-22T21:12:10.379Z,21.67
2023-02-22T21:14:38.022Z,20.80
2023-02-22T21:17:06.646Z,22.17
2023-02-22T21:19:34.048Z,20.40
2023-02-22T21:22:06.207Z,20.38
2023-02-22T21:24:34.761Z,21.75
2023-02-22T21:27:03.438Z,22.13
2023-02-22T21:29:34.330Z,22.08
2023-02-22T21:32:02.203Z,21.23
2023-02-22T21:34:29.817Z,21.27
2023-02-22T21:36:57.039Z,22.55
2023-02-22T21:39:28.397Z,21.05
2023-02-22T21:42:00.081Z,20.58
2023-02-22T21:44:28.155Z,21.58
2023-02-22T21:46:55.386Z,21.05
2023-02-22T21:49:23.116Z,21.15
2023-02-22T21:51:51.533Z,21.30
2023-02-22T21:54:18.789Z,22.23
2023-02-22T21:56:46.266Z,21.92
2023-02-22T21:59:20.510Z,22.23
2023-02-22T22:01:55.386Z,22.25
2023-02-22T22:04:24.775Z,22.10
2023-02-22T22:06:52.853Z,24.35
2023-02-22T22:09:20.248Z,24.10
2023-02-22T22:11:47.296Z,23.45
2023-02-22T22:14:14.377Z,23.60
2023-02-22T22:16:41.524Z,24.77
2023-02-22T22:19:08.761Z,23.23
2023-02-22T22:21:36.263Z,25.45
2023-02-22T22:24:04.910Z,23.17
2023-02-22T22:26:33.836Z,25.13
2023-02-22T22:29:04.037Z,24.25
2023-02-22T22:31:31.700Z,23.40
2023-02-22T22:33:59.001Z,26.05
2023-02-22T22:36:27.389Z,37.75
2023-02-22T22:38:57.425Z,28.50
2023-02-22T22:41:27.859Z,34.75
2023-02-22T22:43:54.994Z,49.50
2023-02-22T22:46:22.227Z,28.60
2023-02-22T22:48:49.534Z,27.73
2023-02-22T22:51:19.755Z,26.73
2023-02-22T22:53:48.132Z,35.13
2023-02-22T22:56:17.484Z,29.35
2023-02-22T22:58:49.383Z,27.23
2023-02-22T23:01:18.102Z,28.63
2023-02-22T23:03:54.908Z,26.73
2023-02-22T23:06:24.901Z,28.23
2023-02-22T23:09:00.491Z,27.55
2023-02-22T23:11:33.663Z,29.08
2023-02-22T23:14:02.974Z,30.77
2023-02-22T23:16:30.055Z,32.75
2023-02-22T23:18:58.605Z,41.80
2023-02-22T23:21:25.834Z,38.50
2023-02-22T23:23:58.193Z,33.88
2023-02-22T23:26:26.886Z,41.00
2023-02-22T23:28:59.131Z,47.00
2023-02-22T23:31:29.378Z,29.55
2023-02-22T23:33:58.902Z,30.80
2023-02-22T23:36:26.756Z,29.70
2023-02-22T23:38:54.262Z,31.48
2023-02-22T23:41:24.985Z,29.63
2023-02-22T23:43:52.184Z,30.52
2023-02-22T23:46:19.446Z,28.92
2023-02-22T23:48:51.073Z,29.50
2023-02-22T23:51:20.628Z,29.35
2023-02-22T23:53:49.118Z,29.50
2023-02-22T23:56:22.012Z,29.27
2023-02-22T23:58:52.797Z,29.98
